Allensville, PA

7:12 PM EDT on May 22, 2015 (GMT -0400)
big valley | | Change Station
CLOSE
Current Station
Personal Weather Station
Location: Belleville, PA
Elevation: 873 ft
Nearby Weather Stations
Active Advisory: Frost Advisory

Elev 873 ft 40.62 °N, 77.71 °W | Updated 8 minutes ago

Clear
Clear
65.8 °F
Feels Like 65.8 °F
N
21.2
Wind Variable Wind from WNW

Today
High -- | Low -- °F
--% Chance of Precip.
Yesterday
High -- | Low -- °F
Precip. -- in
5:48 AM 8:27 PM
Waxing Crescent, 24% visible
Pressure 30.11 in
Visibility 10.0 miles
Clouds Clear
Dew Point 31 °F
Humidity 27%
Rainfall 0.00 in
Snow Depth Not available.
UV 1 out of 12
Pollen 8.90 out of 12
Air Quality Not available.
Flu Activity Sporadic
METAR KUNV 222253Z 29011G19KT 10SM SKC 17/M05 A3011

More Conditions Fewer Conditions

Pressure 30.11 in
Visibility 10.0 miles
Clouds Clear
Dew Point 31 °F
Humidity 27%
Rainfall 0.00 in
Snow Depth Not available.
UV 1 out of 12
Pollen 8.90 out of 12
Air Quality Not available.
Flu Activity Sporadic
METAR KUNV 222253Z 29011G19KT 10SM SKC 17/M05 A3011

More Conditions Fewer Conditions

10-Day Weather Forecast

Almanac

Astronomy

May. 22, 2015 Rise Set
Actual Time
Civil Twilight
Nautical Twilight
Astronomical Twilight
Moon
Length of Visible Light
Length of Day
Tomorrow will be .
, % of the Moon is Illuminated

Today's Extremes

State Highs State Lows

Community

WunderPhotos

Upload Photos

1,823,330 photos uploaded!

WunderBlogs® & News

Nearby

Air Quality

  Air Quality AQ Index Pollutant
Not available.

Snow Depth

Station Depth Elevation

Earthquake Activity

City Distance Mag. Time & Date
Minimum magnitude displayed is 2.5.

Coastal Water Temperatures

Place Temperature

Stations

Nearby Weather Stations

Station Location Temp. Windchill Dew Point Humidity Wind Precip. Elev Updated Type
                   
Frost Advisory
Statement as of 1:05 PM EDT on May 22, 2015

... Frost advisory in effect from midnight tonight to 8 am EDT
Saturday...

The National Weather Service in State College has issued a frost
advisory... which is in effect from midnight tonight to 8 am EDT
Saturday.

* Temperatures... lows around sunrise Saturday will be in the mid
30s with frost likely.

* Timing... temperatures will first dip into the mid 30s shortly
after midnight... then settle near... or just below record lows
for the date between 5 and 7 am Saturday.

* Impacts... possible damage to sensitive plants.

Precautionary/preparedness actions...

A frost advisory is issued when widespread frost is expected to
develop during the growing season. Those with agricultural or
gardening interests in the advisory area should protect sensitive
plants and crops. Potted plants normally left outdoors should be
covered or brought inside.